Time;durP1;ratioP1;P1;durP2;ratioP2;P2;SDS_P1;SDS_P2;PMS_P1;PMS_P2;Temp;Humidity;BMP_temperature;BMP_pressure;BME280_temperature;BME280_humidity;BME280_pressure;Samples;Min_cycle;Max_cycle;Signal;HPM_P1;HPM_P2
2022/07/18 00:00:39;;;;;;;3.90;2.00;;;;;;;14.87;57.81;101150.07;106455;1282;23462;-75
2022/07/18 00:03:06;;;;;;;2.00;1.80;;;;;;;14.84;57.92;101146.74;106379;1280;23384;-77
2022/07/18 00:05:33;;;;;;;3.40;2.10;;;;;;;14.79;57.94;101149.11;106588;1276;23903;-77
2022/07/18 00:08:00;;;;;;;3.60;2.10;;;;;;;14.77;58.25;101146.47;106288;1278;22715;-75
2022/07/18 00:10:27;;;;;;;4.50;2.10;;;;;;;14.71;58.52;101148.66;105474;1282;22547;-77
2022/07/18 00:12:54;;;;;;;5.70;2.70;;;;;;;14.66;58.65;101145.55;105501;1281;22564;-77
2022/07/18 00:15:21;;;;;;;5.40;2.60;;;;;;;14.65;58.80;101147.16;105115;1285;22602;-78
2022/07/18 00:17:48;;;;;;;3.00;2.40;;;;;;;14.62;58.93;101150.91;104921;1287;22575;-78
2022/07/18 00:20:15;;;;;;;4.50;2.50;;;;;;;14.59;59.07;101149.91;105675;1285;24450;-78
2022/07/18 00:22:42;;;;;;;5.60;2.40;;;;;;;14.53;59.24;101151.77;105434;1285;22589;-79
2022/07/18 00:25:10;;;;;;;4.40;2.40;;;;;;;14.48;59.47;101152.88;105129;1285;22680;-77
2022/07/18 00:27:37;;;;;;;3.20;2.10;;;;;;;14.42;59.61;101153.48;104775;1285;25977;-75
2022/07/18 00:30:04;;;;;;;3.50;2.00;;;;;;;14.36;59.79;101150.73;104459;1291;24310;-77
2022/07/18 00:32:31;;;;;;;3.80;2.20;;;;;;;14.31;59.89;101154.52;104672;1291;23101;-75
2022/07/18 00:34:58;;;;;;;3.90;2.30;;;;;;;14.26;60.20;101154.04;104789;1282;25335;-72
2022/07/18 00:37:25;;;;;;;3.70;2.30;;;;;;;14.22;60.32;101152.85;105171;1282;22579;-74
2022/07/18 00:39:54;;;;;;;4.60;2.00;;;;;;;14.22;60.39;101152.86;105320;1282;25488;-76
2022/07/18 00:42:21;;;;;;;3.00;2.60;;;;;;;14.18;60.54;101152.91;105514;1281;22526;-76
2022/07/18 00:44:54;;;;;;;4.70;2.60;;;;;;;14.11;60.78;101148.73;105076;1284;25368;-72
2022/07/18 00:47:22;;;;;;;5.30;2.50;;;;;;;14.06;61.01;101150.73;104868;1285;22943;-76
2022/07/18 00:49:49;;;;;;;4.50;2.50;;;;;;;14.04;61.14;101155.55;105279;1282;24672;-75
2022/07/18 00:52:16;;;;;;;7.60;2.60;;;;;;;14.01;61.14;101148.31;105262;1282;23493;-75
2022/07/18 00:54:43;;;;;;;4.00;2.20;;;;;;;13.98;61.36;101146.93;105292;1282;25247;-75
2022/07/18 00:57:12;;;;;;;6.20;2.10;;;;;;;13.98;61.49;101150.46;105382;1284;25578;-75
2022/07/18 01:02:26;;;;;;;5.60;2.60;;;;;;;13.96;61.77;101150.49;105892;1282;25366;-76
2022/07/18 01:04:54;;;;;;;4.90;2.70;;;;;;;13.96;61.67;101149.79;105665;1282;22566;-79
2022/07/18 01:07:21;;;;;;;4.90;2.50;;;;;;;13.91;61.96;101151.96;105611;1282;22639;-75
2022/07/18 01:09:48;;;;;;;3.90;2.10;;;;;;;13.91;61.88;101154.62;105955;1282;24344;-77
2022/07/18 01:12:15;;;;;;;4.40;2.60;;;;;;;13.89;61.97;101154.65;105953;1277;22555;-74
2022/07/18 01:14:43;;;;;;;5.20;2.30;;;;;;;13.83;62.11;101156.11;106093;1276;22560;-83
2022/07/18 01:17:16;;;;;;;4.20;2.40;;;;;;;13.80;62.33;101161.80;105541;1284;22573;-80
2022/07/18 01:19:44;;;;;;;3.50;2.50;;;;;;;13.79;62.41;101161.83;105378;1282;22733;-77
2022/07/18 01:22:13;;;;;;;4.10;2.40;;;;;;;13.75;62.42;101163.11;105708;1282;22883;-74
2022/07/18 01:24:41;;;;;;;4.90;2.60;;;;;;;13.71;62.67;101166.33;105677;1282;22733;-80
2022/07/18 01:27:08;;;;;;;5.90;2.60;;;;;;;13.71;62.56;101167.92;105358;1282;26646;-81
2022/07/18 01:29:35;;;;;;;4.40;2.50;;;;;;;13.72;62.74;101168.63;105391;1282;22890;-78
2022/07/18 01:32:06;;;;;;;4.50;2.30;;;;;;;13.74;62.74;101165.77;105391;1283;22734;-76
2022/07/18 01:34:34;;;;;;;5.80;3.40;;;;;;;13.72;62.79;101171.61;105236;1282;24240;-77
2022/07/18 01:37:02;;;;;;;3.40;2.40;;;;;;;13.69;62.81;101168.12;105999;1280;22579;-78
2022/07/18 01:39:29;;;;;;;5.20;2.90;;;;;;;13.68;62.98;101169.02;105640;1279;24293;-77
2022/07/18 01:41:58;;;;;;;5.50;3.10;;;;;;;13.67;62.97;101171.87;105848;1279;24235;-78
2022/07/18 01:44:26;;;;;;;3.80;2.90;;;;;;;13.65;63.17;101171.33;105938;1279;24230;-80
2022/07/18 01:46:53;;;;;;;6.00;2.90;;;;;;;13.62;63.16;101169.41;105681;1279;22730;-79
2022/07/18 01:49:21;;;;;;;6.60;2.90;;;;;;;13.56;63.14;101165.06;105796;1279;22747;-73
2022/07/18 01:51:52;;;;;;;3.90;2.90;;;;;;;13.49;63.32;101159.95;105832;1278;22726;-76
2022/07/18 01:54:24;;;;;;;6.00;2.90;;;;;;;13.45;63.50;101166.89;105837;1277;25559;-78
2022/07/18 01:56:51;;;;;;;2.90;2.60;;;;;;;13.43;63.69;101161.77;105364;1279;22574;-79
2022/07/18 01:59:19;;;;;;;6.00;2.80;;;;;;;13.42;63.89;101168.15;105788;1279;22697;-78
2022/07/18 02:01:46;;;;;;;3.60;3.20;;;;;;;13.41;63.85;101168.34;105232;1285;25280;-76
2022/07/18 02:04:13;;;;;;;5.00;3.00;;;;;;;13.40;63.99;101174.71;105372;1284;25277;-82
2022/07/18 02:06:40;;;;;;;6.10;3.30;;;;;;;13.41;64.10;101175.23;105322;1284;22662;-75
2022/07/18 02:09:09;;;;;;;4.50;2.90;;;;;;;13.38;64.11;101180.20;104695;1290;25580;-75
2022/07/18 02:11:37;;;;;;;3.60;2.90;;;;;;;13.33;64.25;101181.14;104761;1288;22570;-74
2022/07/18 02:14:05;;;;;;;4.40;3.30;;;;;;;13.25;64.40;101173.79;104768;1290;25689;-75
2022/07/18 02:16:33;;;;;;;6.00;2.90;;;;;;;13.23;64.51;101173.77;104804;1290;24401;-73
2022/07/18 02:19:01;;;;;;;5.30;3.20;;;;;;;13.22;64.53;101175.02;104548;1287;22730;-74
2022/07/18 02:21:28;;;;;;;5.80;3.30;;;;;;;13.24;64.74;101175.90;105373;1282;25116;-74
2022/07/18 02:23:54;;;;;;;5.00;3.00;;;;;;;13.24;64.69;101174.66;105340;1285;22547;-74
2022/07/18 02:26:22;;;;;;;6.20;3.30;;;;;;;13.22;64.67;101178.56;105221;1284;23222;-74
2022/07/18 02:28:48;;;;;;;7.40;3.70;;;;;;;13.19;64.83;101182.11;105841;1277;24096;-75
2022/07/18 02:31:15;;;;;;;5.10;3.50;;;;;;;13.16;64.90;101182.14;105860;1278;23770;-82
2022/07/18 02:33:43;;;;;;;4.50;3.10;;;;;;;13.14;65.03;101183.92;105360;1282;24267;-77
2022/07/18 02:36:10;;;;;;;4.80;3.70;;;;;;;13.12;65.11;101179.34;105377;1282;25491;-73
2022/07/18 02:38:37;;;;;;;6.80;3.70;;;;;;;13.08;65.23;101181.14;105467;1282;25241;-74
2022/07/18 02:41:04;;;;;;;5.00;3.20;;;;;;;13.08;65.25;101182.38;105407;1282;22555;-75
2022/07/18 02:43:31;;;;;;;5.70;3.20;;;;;;;13.03;65.33;101183.12;105663;1281;22703;-73
2022/07/18 02:45:58;;;;;;;6.90;3.10;;;;;;;12.99;65.40;101180.48;105239;1281;22557;-73
2022/07/18 02:48:25;;;;;;;5.50;4.10;;;;;;;12.99;65.63;101179.07;105256;1281;24314;-74
2022/07/18 02:50:52;;;;;;;9.50;3.40;;;;;;;12.98;65.57;101176.25;105391;1282;22541;-75
2022/07/18 02:53:22;;;;;;;7.00;3.40;;;;;;;13.00;65.75;101179.95;105725;1282;22583;-76
2022/07/18 02:55:52;;;;;;;5.40;3.80;;;;;;;13.00;65.73;101180.30;105522;1281;24298;-75
2022/07/18 02:58:19;;;;;;;6.50;3.50;;;;;;;12.99;65.73;101183.66;105614;1281;22859;-81
2022/07/18 03:00:46;;;;;;;7.20;4.00;;;;;;;12.99;65.61;101188.45;105468;1281;22573;-72
2022/07/18 03:03:13;;;;;;;6.50;3.40;;;;;;;12.93;65.82;101187.43;105459;1281;23938;-73
2022/07/18 03:05:40;;;;;;;6.20;3.50;;;;;;;12.89;65.94;101183.39;105426;1282;22599;-74
2022/07/18 03:08:07;;;;;;;4.90;3.20;;;;;;;12.86;66.02;101183.06;105499;1281;23713;-75
2022/07/18 03:10:34;;;;;;;5.10;3.60;;;;;;;12.87;65.99;101186.23;105610;1282;24519;-74
2022/07/18 03:13:02;;;;;;;4.20;3.00;;;;;;;12.85;66.19;101189.41;105978;1278;22698;-78
2022/07/18 03:15:29;;;;;;;5.70;3.30;;;;;;;12.85;66.29;101189.23;106034;1276;25317;-75
2022/07/18 03:17:56;;;;;;;5.80;3.70;;;;;;;12.88;66.30;101184.45;105879;1276;22551;-76
2022/07/18 03:20:22;;;;;;;4.90;3.40;;;;;;;12.90;66.40;101184.08;105953;1274;23783;-73
2022/07/18 03:22:49;;;;;;;5.50;3.60;;;;;;;12.92;66.48;101184.96;105796;1276;24317;-76
2022/07/18 03:25:16;;;;;;;6.60;3.60;;;;;;;12.92;66.38;101185.14;105725;1276;25354;-72
2022/07/18 03:27:43;;;;;;;3.90;3.30;;;;;;;12.90;66.38;101188.33;105866;1275;22528;-74
2022/07/18 03:30:11;;;;;;;7.10;3.60;;;;;;;12.88;66.35;101190.28;105926;1275;24787;-73
2022/07/18 03:32:38;;;;;;;4.00;3.60;;;;;;;12.88;66.41;101199.48;105261;1285;26063;-78
2022/07/18 03:35:06;;;;;;;5.80;3.00;;;;;;;12.87;66.62;101196.84;105555;1282;26479;-76
2022/07/18 03:37:33;;;;;;;7.60;3.50;;;;;;;12.85;66.52;101197.54;105456;1282;22554;-77
2022/07/18 03:40:00;;;;;;;7.70;4.00;;;;;;;12.85;66.57;101202.15;105291;1282;24292;-78
2022/07/18 03:42:27;;;;;;;7.70;3.20;;;;;;;12.86;66.77;101202.50;105374;1282;22720;-75
2022/07/18 03:44:54;;;;;;;7.10;2.90;;;;;;;12.86;66.73;101202.85;105264;1282;26831;-73
2022/07/18 03:47:21;;;;;;;4.00;3.60;;;;;;;12.87;66.76;101203.20;105445;1282;24267;-80
2022/07/18 03:49:48;;;;;;;5.90;3.70;;;;;;;12.91;66.76;101203.35;105090;1284;25336;-74
2022/07/18 03:52:14;;;;;;;4.70;3.20;;;;;;;12.95;66.85;101205.09;105174;1284;25319;-74
2022/07/18 03:54:41;;;;;;;4.90;3.50;;;;;;;12.97;66.70;101208.08;105108;1284;22575;-74
2022/07/18 03:57:08;;;;;;;5.00;3.30;;;;;;;12.96;66.65;101207.56;105057;1285;22540;-74
2022/07/18 03:59:35;;;;;;;6.60;3.70;;;;;;;12.98;66.68;101204.72;105476;1281;24236;-74
2022/07/18 04:02:03;;;;;;;5.70;3.20;;;;;;;13.01;66.77;101205.23;105324;1281;22548;-72
2022/07/18 04:04:30;;;;;;;5.20;2.80;;;;;;;13.05;66.79;101213.70;105303;1284;24795;-75
2022/07/18 04:06:59;;;;;;;5.30;2.90;;;;;;;13.12;66.72;101213.66;105366;1281;25246;-71
2022/07/18 04:09:27;;;;;;;7.50;3.30;;;;;;;13.18;66.59;101212.02;105518;1281;22747;-73
2022/07/18 04:11:55;;;;;;;5.10;3.00;;;;;;;13.24;66.47;101207.55;105282;1281;22640;-75
2022/07/18 04:14:24;;;;;;;5.20;3.20;;;;;;;13.29;66.42;101210.70;105928;1276;24230;-75
2022/07/18 04:16:52;;;;;;;5.30;3.20;;;;;;;13.32;66.34;101213.16;105198;1281;24264;-76
2022/07/18 04:19:19;;;;;;;5.40;3.20;;;;;;;13.35;66.33;101211.01;105471;1281;22555;-76
2022/07/18 04:21:46;;;;;;;8.00;3.70;;;;;;;13.37;66.21;101210.98;105433;1281;22641;-75
2022/07/18 04:24:13;;;;;;;6.70;3.60;;;;;;;13.40;66.07;101206.20;105702;1281;24917;-76
2022/07/18 04:26:40;;;;;;;8.20;3.30;;;;;;;13.43;66.20;101204.41;105689;1281;24245;-76
2022/07/18 04:29:07;;;;;;;5.60;2.80;;;;;;;13.48;66.05;101206.33;105959;1282;25363;-79
2022/07/18 04:31:34;;;;;;;5.10;3.20;;;;;;;13.51;65.93;101200.66;105188;1284;22876;-73
2022/07/18 04:34:01;;;;;;;6.80;3.40;;;;;;;13.54;66.03;101198.34;105199;1282;23968;-77
2022/07/18 04:36:28;;;;;;;5.80;3.70;;;;;;;13.56;65.91;101198.14;105295;1282;23166;-78
2022/07/18 04:38:56;;;;;;;8.60;3.20;;;;;;;13.58;65.91;101194.06;105291;1284;23118;-76
2022/07/18 04:41:24;;;;;;;6.90;3.90;;;;;;;13.61;65.85;101192.27;105378;1279;25452;-77
2022/07/18 04:43:57;;;;;;;4.00;3.10;;;;;;;13.63;65.89;101195.24;105879;1278;24146;-75
2022/07/18 04:46:24;;;;;;;4.40;3.10;;;;;;;13.68;65.83;101200.35;105739;1280;22554;-75
2022/07/18 04:48:51;;;;;;;5.70;2.90;;;;;;;13.73;65.82;101198.34;105839;1277;22525;-76
2022/07/18 04:51:18;;;;;;;5.90;3.20;;;;;;;13.78;65.75;101198.83;105788;1277;22564;-76
2022/07/18 04:53:45;;;;;;;9.70;3.40;;;;;;;13.83;65.64;101198.07;105983;1278;22560;-75
2022/07/18 04:56:12;;;;;;;8.50;2.70;;;;;;;13.89;65.58;101201.92;105510;1282;26614;-79
2022/07/18 04:58:39;;;;;;;10.50;3.50;;;;;;;13.95;65.60;101199.73;105209;1282;22700;-79
2022/07/18 05:01:06;;;;;;;6.90;3.30;;;;;;;14.03;65.43;101201.25;105307;1282;26095;-78
2022/07/18 05:03:34;;;;;;;7.60;3.20;;;;;;;14.11;65.35;101208.77;105015;1287;22579;-79
2022/07/18 05:06:01;;;;;;;7.30;3.20;;;;;;;14.18;65.11;101204.61;104506;1291;22562;-78
2022/07/18 05:08:28;;;;;;;6.00;2.80;;;;;;;14.22;65.00;101207.05;104465;1291;23969;-82
2022/07/18 05:10:56;;;;;;;7.00;3.40;;;;;;;14.28;64.97;101206.27;104322;1291;22765;-80
2022/07/18 05:13:23;;;;;;;3.50;2.40;;;;;;;14.33;64.92;101206.23;104053;1297;22685;-80
2022/07/18 05:15:51;;;;;;;5.20;2.90;;;;;;;14.39;64.96;101209.35;104499;1291;22548;-79
2022/07/18 05:18:18;;;;;;;5.20;2.70;;;;;;;14.44;64.77;101206.98;104497;1291;22550;-79
2022/07/18 05:20:46;;;;;;;3.80;2.40;;;;;;;14.51;64.80;101209.91;104040;1297;22575;-80
2022/07/18 05:23:16;;;;;;;4.10;3.10;;;;;;;14.56;64.86;101207.02;104175;1293;22552;-78
2022/07/18 05:25:43;;;;;;;6.70;3.00;;;;;;;14.64;64.98;101208.52;104744;1288;22560;-80
2022/07/18 05:28:10;;;;;;;4.00;2.50;;;;;;;14.70;64.84;101200.98;104773;1287;22719;-80
2022/07/18 05:30:37;;;;;;;5.30;2.90;;;;;;;14.76;64.87;101195.23;104970;1288;22572;-82
2022/07/18 05:33:05;;;;;;;4.20;2.60;;;;;;;14.87;64.82;101196.52;105237;1285;26556;-81
2022/07/18 05:35:33;;;;;;;5.40;2.60;;;;;;;14.93;64.50;101195.91;105679;1282;25125;-82
2022/07/18 05:38:00;;;;;;;3.00;2.30;;;;;;;14.99;64.51;101195.13;106650;1282;25382;-78
2022/07/18 05:40:27;;;;;;;4.20;2.00;;;;;;;15.04;64.31;101194.70;107202;1277;22717;-78
2022/07/18 05:42:54;;;;;;;3.90;2.60;;;;;;;15.12;64.01;101192.98;107128;1281;22698;-78
2022/07/18 05:45:24;;;;;;;6.70;2.50;;;;;;;15.18;63.73;101193.95;106610;1278;24190;-77
2022/07/18 05:47:53;;;;;;;6.10;2.40;;;;;;;15.25;63.78;101194.20;107256;1277;22542;-78
2022/07/18 05:50:23;;;;;;;3.70;2.40;;;;;;;15.35;63.56;101197.77;107560;1278;24123;-78
2022/07/18 05:52:51;;;;;;;6.40;2.30;;;;;;;15.45;63.40;101200.80;107886;1277;25818;-80
2022/07/18 05:55:18;;;;;;;3.60;2.40;;;;;;;15.53;63.04;101197.83;108765;1278;22537;-83
2022/07/18 05:57:45;;;;;;;6.50;2.20;;;;;;;15.66;63.21;101201.88;108720;1277;23305;-81
2022/07/18 06:00:13;;;;;;;3.70;1.90;;;;;;;15.80;62.50;101201.80;108813;1278;22549;-82
2022/07/18 06:02:41;;;;;;;2.60;1.90;;;;;;;15.93;62.35;101205.30;108510;1278;22555;-84
2022/07/18 06:05:09;;;;;;;2.60;1.70;;;;;;;16.02;62.16;101208.00;108519;1276;25325;-83
2022/07/18 06:07:49;;;;;;;3.40;1.90;;;;;;;16.15;61.77;101209.01;107962;1281;25955;-80
2022/07/18 06:10:16;;;;;;;4.40;1.90;;;;;;;16.24;61.45;101204.40;106816;1277;22647;-83
2022/07/18 06:12:44;;;;;;;4.60;2.50;;;;;;;16.30;61.47;101200.02;106857;1278;24276;-79
2022/07/18 06:15:12;;;;;;;4.10;2.10;;;;;;;16.41;61.62;101201.39;105750;1281;24548;-77
2022/07/18 06:17:39;;;;;;;3.60;2.10;;;;;;;16.48;61.12;101198.59;105774;1281;24837;-79
2022/07/18 06:20:07;;;;;;;2.70;2.00;;;;;;;16.49;60.82;101202.82;105678;1281;26512;-75
2022/07/18 06:22:36;;;;;;;4.10;2.00;;;;;;;16.51;61.05;101201.72;105662;1281;25268;-74
2022/07/18 06:25:04;;;;;;;7.20;3.10;;;;;;;16.56;61.21;101198.76;105513;1281;25504;-82
2022/07/18 06:27:31;;;;;;;5.10;1.90;;;;;;;16.64;60.99;101198.61;104967;1288;25385;-79
2022/07/18 06:29:59;;;;;;;4.60;2.20;;;;;;;16.67;60.97;101197.67;105335;1284;24112;-72
2022/07/18 06:32:26;;;;;;;3.10;2.20;;;;;;;16.71;61.10;101193.65;105238;1284;24291;-81
2022/07/18 06:34:53;;;;;;;7.10;2.50;;;;;;;16.75;61.01;101196.23;105623;1284;24780;-82
2022/07/18 06:37:20;;;;;;;5.40;2.60;;;;;;;16.76;60.82;101198.52;105557;1284;24184;-77
2022/07/18 06:39:47;;;;;;;4.30;2.10;;;;;;;16.76;60.74;101197.81;105475;1284;22881;-82
2022/07/18 06:42:14;;;;;;;6.60;2.30;;;;;;;16.75;60.44;101199.08;105478;1284;300073;-85
2022/07/18 06:44:41;;;;;;;3.50;1.90;;;;;;;16.72;60.45;101198.61;105407;1284;22588;-77
2022/07/18 06:47:08;;;;;;;5.20;2.00;;;;;;;16.70;60.61;101197.23;105296;1284;23980;-77
2022/07/18 06:49:35;;;;;;;6.80;2.50;;;;;;;16.76;60.73;101192.84;105494;1282;25373;-77
2022/07/18 06:52:02;;;;;;;4.20;2.10;;;;;;;16.84;60.88;101194.79;104710;1290;24278;-79
2022/07/18 06:54:33;;;;;;;6.20;2.10;;;;;;;16.89;60.83;101192.89;104201;1296;25890;-77
2022/07/18 06:57:00;;;;;;;3.60;2.30;;;;;;;16.87;60.76;101192.41;104152;1293;24656;-81
2022/07/18 06:59:26;;;;;;;6.90;2.30;;;;;;;16.88;60.95;101195.59;104014;1297;22875;-81
2022/07/18 07:01:53;;;;;;;4.80;2.00;;;;;;;16.92;61.13;101195.52;104178;1297;22888;-80
2022/07/18 07:04:21;;;;;;;4.90;2.00;;;;;;;16.92;61.02;101194.63;104073;1296;22558;-79
2022/07/18 07:06:47;;;;;;;3.50;2.20;;;;;;;16.88;60.69;101189.89;104620;1290;22570;-79
2022/07/18 07:09:14;;;;;;;7.00;2.70;;;;;;;16.93;60.70;101191.73;104592;1290;22758;-77
2022/07/18 07:11:41;;;;;;;3.00;2.20;;;;;;;16.97;60.96;101191.13;105232;1284;25438;-77
2022/07/18 07:14:08;;;;;;;3.90;2.30;;;;;;;17.03;60.82;101192.22;106160;1278;25242;-79
2022/07/18 07:16:35;;;;;;;3.50;2.20;;;;;;;17.10;60.71;101192.27;106266;1277;22730;-76
2022/07/18 07:19:02;;;;;;;5.00;2.80;;;;;;;17.10;60.36;101190.67;106494;1278;22486;-78
2022/07/18 07:21:29;;;;;;;5.30;3.30;;;;;;;17.07;60.59;101186.27;106307;1278;25365;-81
2022/07/18 07:23:56;;;;;;;5.00;2.70;;;;;;;17.10;60.56;101184.65;106384;1277;22558;-78
2022/07/18 07:26:23;;;;;;;5.90;3.90;;;;;;;17.11;60.68;101184.27;106057;1277;25203;-82
2022/07/18 07:28:50;;;;;;;6.40;3.40;;;;;;;17.14;60.68;101186.49;106097;1277;22647;-79
2022/07/18 07:31:17;;;;;;;6.60;3.40;;;;;;;17.18;60.79;101190.66;106009;1278;23658;-77
2022/07/18 07:33:44;;;;;;;6.70;3.30;;;;;;;17.21;60.61;101188.81;105772;1278;23258;-78
2022/07/18 07:36:11;;;;;;;3.90;3.50;;;;;;;17.22;60.71;101186.65;105877;1277;25240;-76
2022/07/18 07:38:38;;;;;;;7.20;3.60;;;;;;;17.27;60.74;101187.42;106012;1277;22561;-81
2022/07/18 07:41:06;;;;;;;5.50;3.90;;;;;;;17.29;60.28;101193.07;106057;1277;23703;-79
2022/07/18 07:43:36;;;;;;;7.50;3.60;;;;;;;17.33;60.43;101187.28;105893;1278;22612;-80
2022/07/18 07:46:03;;;;;;;6.80;3.50;;;;;;;17.43;60.64;101183.65;106115;1276;25788;-80
2022/07/18 07:48:30;;;;;;;6.80;3.30;;;;;;;17.52;60.27;101187.15;105857;1278;25566;-82
2022/07/18 07:50:57;;;;;;;4.80;2.70;;;;;;;17.51;60.09;101187.55;105827;1278;22623;-81
2022/07/18 07:53:24;;;;;;;6.80;3.20;;;;;;;17.52;60.04;101182.73;105891;1278;22567;-80
2022/07/18 07:55:51;;;;;;;6.20;3.70;;;;;;;17.59;60.19;101187.17;106027;1276;25327;-80
2022/07/18 07:58:18;;;;;;;5.10;2.70;;;;;;;17.67;60.08;101187.13;105653;1276;25360;-80
2022/07/18 08:00:45;;;;;;;6.30;3.00;;;;;;;17.75;60.06;101184.45;105842;1278;22603;-73
2022/07/18 08:03:12;;;;;;;3.60;3.00;;;;;;;17.88;60.06;101182.84;105883;1277;26510;-77
2022/07/18 08:05:49;;;;;;;4.50;2.40;;;;;;;17.97;59.94;101182.05;105850;1277;24811;-78
2022/07/18 08:08:18;;;;;;;5.80;2.20;;;;;;;18.05;59.58;101180.24;106048;1277;22535;-78
2022/07/18 08:10:46;;;;;;;3.20;2.00;;;;;;;18.12;59.50;101180.63;105782;1279;25659;-77
2022/07/18 08:13:13;;;;;;;3.40;1.90;;;;;;;18.17;59.39;101181.93;105837;1277;23223;-79
2022/07/18 08:15:41;;;;;;;6.50;2.40;;;;;;;18.26;59.20;101184.34;105730;1278;22556;-78
2022/07/18 08:18:08;;;;;;;3.50;2.10;;;;;;;18.37;58.67;101185.08;105786;1278;25319;-79
2022/07/18 08:20:35;;;;;;;2.90;1.90;;;;;;;18.48;58.65;101183.53;105629;1279;22566;-78
2022/07/18 08:23:07;;;;;;;3.30;2.10;;;;;;;18.62;58.47;101182.40;105636;1276;25548;-77
2022/07/18 08:25:37;;;;;;;6.60;1.90;;;;;;;18.79;57.96;101186.69;105621;1276;23659;-79
2022/07/18 08:28:06;;;;;;;4.40;1.80;;;;;;;18.91;57.37;101177.77;105985;1277;25701;-78
2022/07/18 08:30:34;;;;;;;3.60;1.50;;;;;;;18.99;56.62;101178.59;105838;1277;22844;-77
2022/07/18 08:33:02;;;;;;;3.10;1.80;;;;;;;19.03;56.22;101171.86;106044;1277;22617;-78
2022/07/18 08:35:31;;;;;;;5.00;1.90;;;;;;;19.12;56.31;101172.50;106020;1276;25586;-77
2022/07/18 08:38:00;;;;;;;5.60;2.30;;;;;;;19.21;56.54;101171.69;106353;1276;23323;-77
2022/07/18 08:40:27;;;;;;;4.00;1.90;;;;;;;19.32;56.34;101173.83;106103;1276;22558;-77
2022/07/18 08:42:56;;;;;;;4.20;2.00;;;;;;;19.39;56.21;101172.48;105670;1278;25333;-78
2022/07/18 08:45:43;;;;;;;3.80;1.90;;;;;;;19.44;55.78;101176.27;105937;1276;25306;-77
2022/07/18 08:48:14;;;;;;;5.50;1.70;;;;;;;19.43;55.40;101172.02;106152;1277;22662;-78
2022/07/18 08:50:43;;;;;;;5.30;1.80;;;;;;;19.45;55.55;101172.87;106257;1275;24221;-79
2022/07/18 08:53:13;;;;;;;3.80;2.00;;;;;;;19.51;55.55;101170.31;106068;1276;25673;-80
2022/07/18 08:55:40;;;;;;;4.20;1.90;;;;;;;19.62;55.87;101167.27;106204;1276;22548;-78
2022/07/18 08:58:06;;;;;;;3.40;1.50;;;;;;;19.82;55.89;101166.77;106110;1276;24782;-78
2022/07/18 09:00:53;;;;;;;5.90;1.90;;;;;;;20.03;55.02;101169.23;105975;1276;22542;-77
2022/07/18 09:03:20;;;;;;;3.90;2.20;;;;;;;20.15;54.61;101159.16;105835;1276;22621;-78
2022/07/18 09:06:03;;;;;;;3.40;1.80;;;;;;;20.26;54.02;101156.98;106025;1276;22567;-77
2022/07/18 09:08:30;;;;;;;2.80;1.70;;;;;;;20.38;53.68;101159.94;105971;1277;22497;-78
2022/07/18 09:11:01;;;;;;;4.60;2.30;;;;;;;20.41;53.49;101160.71;105980;1276;25244;-77
2022/07/18 09:13:42;;;;;;;3.40;1.60;;;;;;;20.33;53.91;101159.57;106027;1276;23211;-78
2022/07/18 09:16:11;;;;;;;2.70;1.50;;;;;;;20.42;53.96;101156.73;106258;1276;22534;-78
2022/07/18 09:18:41;;;;;;;5.60;2.00;;;;;;;20.54;53.14;101149.09;105999;1276;22699;-78
2022/07/18 09:21:21;;;;;;;3.40;1.60;;;;;;;20.71;53.36;101155.10;106035;1276;25256;-77
2022/07/18 09:23:50;;;;;;;3.50;1.50;;;;;;;20.82;52.98;101156.60;106084;1277;25364;-78
2022/07/18 09:26:43;;;;;;;4.60;2.30;;;;;;;20.77;53.03;101155.56;105888;1277;25391;-79
2022/07/18 09:29:17;;;;;;;5.10;1.40;;;;;;;20.75;51.86;101160.47;105776;1277;23930;-79
2022/07/18 09:31:54;;;;;;;2.70;1.70;;;;;;;20.73;51.56;101161.09;106052;1276;25127;-76
2022/07/18 09:34:39;;;;;;;6.90;1.80;;;;;;;20.84;51.67;101154.38;106120;1276;22708;-75
2022/07/18 09:37:14;;;;;;;2.20;1.60;;;;;;;21.07;51.13;101155.48;106178;1276;22549;-79
2022/07/18 09:39:40;;;;;;;2.90;2.20;;;;;;;21.27;50.99;101149.11;106238;1276;22494;-76
2022/07/18 09:42:15;;;;;;;2.30;1.70;;;;;;;21.38;50.05;101148.11;105954;1277;22563;-78
2022/07/18 09:44:42;;;;;;;2.70;1.70;;;;;;;21.37;49.74;101148.67;105994;1276;25248;-77
2022/07/18 09:47:09;;;;;;;4.50;1.80;;;;;;;21.41;49.80;101147.27;106296;1276;22533;-78
2022/07/18 09:49:40;;;;;;;3.00;1.40;;;;;;;21.36;49.85;101148.55;105894;1277;25392;-78
2022/07/18 09:52:09;;;;;;;6.20;1.90;;;;;;;21.36;49.80;101147.13;105982;1276;25452;-78
2022/07/18 09:54:39;;;;;;;2.40;1.50;;;;;;;21.31;49.61;101150.19;106268;1276;22529;-80
2022/07/18 09:57:05;;;;;;;3.10;1.80;;;;;;;21.46;49.79;101150.97;106165;1276;24279;-78
2022/07/18 09:59:35;;;;;;;3.30;1.80;;;;;;;21.69;50.11;101147.84;105684;1278;22750;-78
2022/07/18 10:02:04;;;;;;;2.80;1.80;;;;;;;22.02;49.58;101152.92;106272;1275;22560;-78
2022/07/18 10:04:31;;;;;;;4.50;1.50;;;;;;;22.17;49.17;101150.23;106321;1276;22519;-79
2022/07/18 10:06:58;;;;;;;3.30;1.80;;;;;;;22.23;47.77;101151.95;106345;1276;24239;-79
2022/07/18 10:09:26;;;;;;;2.80;1.70;;;;;;;22.29;47.77;101151.33;106291;1277;22567;-75
2022/07/18 10:11:53;;;;;;;4.80;2.30;;;;;;;22.47;47.70;101151.57;106518;1276;22574;-80
2022/07/18 10:14:30;;;;;;;3.80;2.10;;;;;;;22.62;47.52;101147.68;106796;1276;24526;-79
2022/07/18 10:17:00;;;;;;;3.60;1.70;;;;;;;22.73;47.13;101148.23;106249;1276;22785;-78
2022/07/18 10:19:27;;;;;;;3.40;1.90;;;;;;;22.89;46.87;101146.17;106234;1276;22553;-79
2022/07/18 10:21:57;;;;;;;4.20;1.60;;;;;;;23.03;46.45;101149.63;106057;1276;24355;-80
2022/07/18 10:24:26;;;;;;;6.10;1.60;;;;;;;23.02;46.33;101142.70;105966;1278;25650;-80
2022/07/18 10:27:14;;;;;;;3.10;1.70;;;;;;;23.01;47.18;101142.90;106191;1278;23557;-77
2022/07/18 10:30:08;;;;;;;3.10;1.70;;;;;;;23.32;46.28;101143.17;106180;1275;22490;-79
2022/07/18 10:32:35;;;;;;;3.50;1.60;;;;;;;23.43;45.12;101151.63;106422;1274;23202;-78
2022/07/18 10:35:03;;;;;;;1.50;1.40;;;;;;;23.17;45.40;101148.06;106476;1276;22609;-77
2022/07/18 10:37:33;;;;;;;2.80;1.80;;;;;;;23.01;46.16;101151.14;107080;1274;22483;-78
2022/07/18 10:40:22;;;;;;;1.90;1.40;;;;;;;23.07;45.82;101143.38;107062;1276;24359;-77
2022/07/18 10:43:29;;;;;;;3.40;1.70;;;;;;;23.20;45.76;101141.63;107664;1274;23021;-77
2022/07/18 10:46:02;;;;;;;3.20;1.50;;;;;;;23.12;45.69;101144.89;105917;1282;25864;-77
2022/07/18 10:48:32;;;;;;;2.90;1.70;;;;;;;22.98;46.06;101144.85;105485;1282;22899;-76
2022/07/18 10:51:12;;;;;;;2.30;1.40;;;;;;;22.91;46.02;101148.60;105981;1282;22579;-76
2022/07/18 10:53:53;;;;;;;4.60;1.80;;;;;;;22.92;46.01;101152.14;105379;1282;22725;-76
2022/07/18 10:56:41;;;;;;;3.30;1.50;;;;;;;23.00;46.00;101144.94;105493;1282;26532;-79
2022/07/18 10:59:18;;;;;;;4.10;1.60;;;;;;;23.20;46.02;101139.82;105624;1282;25260;-80
2022/07/18 11:01:53;;;;;;;3.90;1.70;;;;;;;23.24;45.54;101138.19;105311;1282;22551;-83
2022/07/18 11:04:26;;;;;;;;;;;;;;;23.09;45.52;101141.27;105245;1282;25240;-76
2022/07/18 11:07:17;;;;;;;4.30;2.00;;;;;;;23.04;45.87;101140.59;105270;1282;25248;-75
2022/07/18 11:09:46;;;;;;;3.00;1.90;;;;;;;23.46;45.44;101131.55;105568;1282;26475;-79
2022/07/18 11:12:30;;;;;;;3.20;1.50;;;;;;;23.67;45.37;101129.35;106361;1282;22586;-78
2022/07/18 11:15:10;;;;;;;;;;;;;;;23.73;45.33;101130.69;106768;1282;22539;-78
2022/07/18 11:18:01;;;;;;;3.60;1.60;;;;;;;23.99;44.58;101127.88;106886;1276;24096;-76
2022/07/18 11:20:41;;;;;;;4.20;1.60;;;;;;;23.96;45.11;101136.86;108147;1274;24419;-77
2022/07/18 11:23:22;;;;;;;2.50;1.70;;;;;;;23.71;43.58;101134.23;107616;1282;22691;-76
2022/07/18 11:25:54;;;;;;;4.00;1.60;;;;;;;23.47;44.03;101132.73;105332;1282;24326;-76
2022/07/18 11:28:26;;;;;;;2.30;1.40;;;;;;;23.34;44.32;101134.10;105528;1282;26514;-75